Northern Lake Huron: Past 24 Hour Conditions

 

Georgian Bay - 45137

07:00 PM EST 22 November 2014Buoy position: 45.55N 81.0W
This table is a summary of hourly weather conditions for the past 24 hours.
Date / Time
(EST)
Wind(knots) Wave height(m) Wave period(s) Pressure(kPa) Air tempC) Water tempC)
22 November 2014
19:00 SW 19 gust 23 1.5 5.0 101.0 5 5
18:00 SW 18 gust 23 1.6 5.0 101.0 5 5
17:00 SW 19 gust 23 1.6 5.0 101.0 5 5
16:00 SW 23 gust 29 1.8 6.0 101.0 5 5
15:00 SW 21 gust 25 2.0 6.0 100.9 5 5
14:00 SW 21 gust 27 2.1 5.0 101.0 4 6
13:00 SW 21 gust 27 2.3 6.0 101.0 4 6
12:00 SW 23 gust 31 2.5 6.0 101.1 4 6
11:00 SW 25 gust 29 2.4 6.0 101.2 4 6
10:00 SW 27 gust 31 2.3 6.0 101.3 4 6
9:00 SSW 29 gust 35 2.6 6.0 101.3 4 6
8:00 SSW 27 gust 33 2.5 7.0 101.3 4 6
7:00 SW 29 gust 35 2.7 6.0 101.5 4 6
6:00 SSW 27 gust 33 2.5 6.0 101.6 3 6
5:00 SSW 27 gust 31 2.5 6.0 101.7 3 6
4:00 SSW 25 gust 31 2.6 6.0 101.7 2 6
3:00 SW 27 gust 31 2.4 6.0 100.3 2 6
2:00 SW 27 gust 33 2.3 6.0 100.3 1 6
1:00 SW 27 gust 35 2.6 6.0 100.2 1 6
0:00 SW 27 gust 33 2.1 6.0 100.2 1 6
21 November 2014
23:00 SW 25 gust 33 2.0 6.0 100.2 0 6
22:00 SW 27 gust 33 1.8 5.0 100.2 0 6
21:00 SW 25 gust 31 1.5 5.0 100.1 0 6
20:00 SW 23 gust 31 1.2 5.0 100.1 0 6
19:00 SW 19 gust 23 1.0 4.0 100.0 -1 5
 
Map of Great Lakes - Lake Erie and Lake Ontario marine weather areas Egbert N Huron - 45003 W Erie - 45005 S Huron - 45008 Lake Ontario - 45012 Port Stanley - 45132 Prince Edward Point - 45135 Georgian Bay - 45137 Grimsby - 45139 Port Colborne - 45142 South Georgian Bay - 45143 Lake St Clair - 45147 South Lake Huron - 45149 Lake Simcoe - 45151 Lake Nipissing - 45152 North Channel - 45154 Ajax - 45159 Sault Ste. Marie Airport Greater Sudbury Airport North Bay Airport Gore Bay-Manitoulin Airport Great Duck Island Brockville Grenadier Island Kemptville Kingston Airport Collingwood Lagoon City Muskoka Airport Parry Sound Harbour Lake Simcoe Regional Airport Wiarton Airport Goderich Sarnia Chris Hadfield Airport Tobermory Harrow AAFC Port Weller St. Catharines Airport Southeast Shoal Vineland Station Welland-Pelham Windsor Airport Burlington Lift Bridge Cobourg Hamilton Munro Int'l Airport Oshawa Municipal Airport Point Petre Toronto City Centre Airport Toronto Pearson Int'l Airport CFB Trenton Peterborough Municipal Airport Killarney Western Islands CFB Borden Cove Island Long Point Port Colborne Erieau Point Pelee Toronto Buttonville Municipal Airport
Legend: buoyBuoy land stationLand Station » US Marine Weather